sensor_id;sensor_type;location;lat;lon;timestamp;pressure;altitude;pressure_sealevel;temperature;humidity
3968;BME280;9221;42.646;23.380;2023-04-30T00:00:44;94167.97;;;11.66;78.57
3968;BME280;9221;42.646;23.380;2023-04-30T00:03:09;94159.69;;;11.78;77.60
3968;BME280;9221;42.646;23.380;2023-04-30T00:05:35;94231.72;;;11.96;77.74
3968;BME280;9221;42.646;23.380;2023-04-30T00:08:01;94200.97;;;11.87;78.37
3968;BME280;9221;42.646;23.380;2023-04-30T00:10:26;94196.22;;;11.74;78.07
3968;BME280;9221;42.646;23.380;2023-04-30T00:12:52;94229.22;;;11.78;78.66
3968;BME280;9221;42.646;23.380;2023-04-30T00:15:17;94151.19;;;11.26;77.95
3968;BME280;9221;42.646;23.380;2023-04-30T00:17:43;94139.78;;;11.09;77.59
3968;BME280;9221;42.646;23.380;2023-04-30T00:20:08;94160.91;;;11.26;77.55
3968;BME280;9221;42.646;23.380;2023-04-30T00:22:34;94143.09;;;11.11;77.36
3968;BME280;9221;42.646;23.380;2023-04-30T00:24:59;94223.94;;;11.45;78.47
3968;BME280;9221;42.646;23.380;2023-04-30T00:27:25;94149.69;;;11.07;78.89
3968;BME280;9221;42.646;23.380;2023-04-30T00:29:50;94138.13;;;11.08;79.28
3968;BME280;9221;42.646;23.380;2023-04-30T00:32:16;94248.53;;;11.38;80.03
3968;BME280;9221;42.646;23.380;2023-04-30T00:34:41;94208.09;;;11.29;80.76
3968;BME280;9221;42.646;23.380;2023-04-30T00:37:06;94245.03;;;11.29;81.14
3968;BME280;9221;42.646;23.380;2023-04-30T00:39:32;94136.44;;;10.74;81.97
3968;BME280;9221;42.646;23.380;2023-04-30T00:41:57;94205.78;;;11.17;81.91
3968;BME280;9221;42.646;23.380;2023-04-30T00:44:23;94242.88;;;11.16;82.18
3968;BME280;9221;42.646;23.380;2023-04-30T00:46:48;94151.66;;;10.97;81.52
3968;BME280;9221;42.646;23.380;2023-04-30T00:49:13;94184.03;;;11.24;80.74
3968;BME280;9221;42.646;23.380;2023-04-30T00:51:39;94127.06;;;10.72;80.80
3968;BME280;9221;42.646;23.380;2023-04-30T00:54:06;94194.84;;;10.88;81.78
3968;BME280;9221;42.646;23.380;2023-04-30T00:56:32;94148.84;;;10.31;82.79
3968;BME280;9221;42.646;23.380;2023-04-30T00:58:58;94168.19;;;10.05;83.97
3968;BME280;9221;42.646;23.380;2023-04-30T01:01:27;94237.22;;;10.43;84.10
3968;BME280;9221;42.646;23.380;2023-04-30T01:03:53;94212.22;;;10.56;83.86
3968;BME280;9221;42.646;23.380;2023-04-30T01:06:18;94215.97;;;10.45;83.13
3968;BME280;9221;42.646;23.380;2023-04-30T01:08:44;94133.78;;;9.72;84.03
3968;BME280;9221;42.646;23.380;2023-04-30T01:11:37;94133.41;;;9.67;84.89
3968;BME280;9221;42.646;23.380;2023-04-30T01:14:26;94219.84;;;10.32;84.84
3968;BME280;9221;42.646;23.380;2023-04-30T01:17:16;94214.13;;;10.37;83.36
3968;BME280;9221;42.646;23.380;2023-04-30T01:19:45;94136.22;;;10.00;83.36
3968;BME280;9221;42.646;23.380;2023-04-30T01:30:24;94136.94;;;10.10;79.83
3968;BME280;9221;42.646;23.380;2023-04-30T01:32:50;94191.28;;;10.46;79.56
3968;BME280;9221;42.646;23.380;2023-04-30T01:35:15;94204.69;;;10.61;79.10
3968;BME280;9221;42.646;23.380;2023-04-30T01:38:07;94204.97;;;10.58;79.33
3968;BME280;9221;42.646;23.380;2023-04-30T01:40:47;94207.97;;;10.63;79.40
3968;BME280;9221;42.646;23.380;2023-04-30T01:46:20;94204.16;;;10.23;81.81
3968;BME280;9221;42.646;23.380;2023-04-30T01:49:14;94209.31;;;9.98;83.37
3968;BME280;9221;42.646;23.380;2023-04-30T01:51:44;94130.00;;;9.48;83.75
3968;BME280;9221;42.646;23.380;2023-04-30T01:56:43;94132.06;;;9.63;82.79
3968;BME280;9221;42.646;23.380;2023-04-30T01:59:11;94163.13;;;9.59;82.85
3968;BME280;9221;42.646;23.380;2023-04-30T02:01:38;94170.03;;;9.87;81.27
3968;BME280;9221;42.646;23.380;2023-04-30T02:04:04;94207.75;;;9.61;80.64
3968;BME280;9221;42.646;23.380;2023-04-30T02:06:29;94130.81;;;9.75;79.97
3968;BME280;9221;42.646;23.380;2023-04-30T02:08:56;94205.25;;;10.38;78.84
3968;BME280;9221;42.646;23.380;2023-04-30T02:11:28;94211.59;;;10.27;80.25
3968;BME280;9221;42.646;23.380;2023-04-30T02:13:54;94128.22;;;9.83;79.66
3968;BME280;9221;42.646;23.380;2023-04-30T02:16:19;94122.44;;;9.80;79.94
3968;BME280;9221;42.646;23.380;2023-04-30T02:18:45;94122.19;;;9.57;80.78
3968;BME280;9221;42.646;23.380;2023-04-30T02:21:10;94194.91;;;10.19;80.81
3968;BME280;9221;42.646;23.380;2023-04-30T02:23:36;94207.69;;;10.05;81.61
3968;BME280;9221;42.646;23.380;2023-04-30T02:26:01;94119.78;;;9.45;81.88
3968;BME280;9221;42.646;23.380;2023-04-30T02:28:27;94126.06;;;9.53;82.11
3968;BME280;9221;42.646;23.380;2023-04-30T02:30:52;94134.38;;;9.66;81.35
3968;BME280;9221;42.646;23.380;2023-04-30T02:33:18;94194.53;;;10.05;80.96
3968;BME280;9221;42.646;23.380;2023-04-30T02:35:43;94138.25;;;9.27;82.72
3968;BME280;9221;42.646;23.380;2023-04-30T02:38:08;94136.38;;;9.20;82.60
3968;BME280;9221;42.646;23.380;2023-04-30T02:40:34;94195.34;;;9.79;82.09
3968;BME280;9221;42.646;23.380;2023-04-30T02:42:59;94146.38;;;9.34;81.78
3968;BME280;9221;42.646;23.380;2023-04-30T02:45:25;94137.94;;;9.30;82.71
3968;BME280;9221;42.646;23.380;2023-04-30T02:47:51;94185.03;;;9.60;82.97
3968;BME280;9221;42.646;23.380;2023-04-30T02:50:16;94203.53;;;9.68;82.63
3968;BME280;9221;42.646;23.380;2023-04-30T02:52:44;94123.78;;;9.05;82.11
3968;BME280;9221;42.646;23.380;2023-04-30T02:55:10;94121.53;;;9.10;81.67
3968;BME280;9221;42.646;23.380;2023-04-30T02:57:35;94212.75;;;9.72;81.04
3968;BME280;9221;42.646;23.380;2023-04-30T03:00:01;94223.41;;;9.89;80.58
3968;BME280;9221;42.646;23.380;2023-04-30T03:02:26;94218.19;;;9.97;79.87
3968;BME280;9221;42.646;23.380;2023-04-30T03:04:52;94179.47;;;9.63;79.55
3968;BME280;9221;42.646;23.380;2023-04-30T03:07:17;94213.63;;;10.07;78.94
3968;BME280;9221;42.646;23.380;2023-04-30T03:09:43;94098.41;;;9.48;77.94
3968;BME280;9221;42.646;23.380;2023-04-30T03:12:08;94166.84;;;10.01;77.07
3968;BME280;9221;42.646;23.380;2023-04-30T03:14:33;94226.94;;;10.32;76.40
3968;BME280;9221;42.646;23.380;2023-04-30T03:16:59;94161.09;;;9.71;76.85
3968;BME280;9221;42.646;23.380;2023-04-30T03:19:24;94206.91;;;10.13;76.82
3968;BME280;9221;42.646;23.380;2023-04-30T03:21:50;94259.78;;;10.20;76.25
3968;BME280;9221;42.646;23.380;2023-04-30T03:24:17;94242.34;;;10.19;76.27
3968;BME280;9221;42.646;23.380;2023-04-30T03:26:43;94153.88;;;9.73;76.51
3968;BME280;9221;42.646;23.380;2023-04-30T03:29:08;94221.94;;;10.21;76.88
3968;BME280;9221;42.646;23.380;2023-04-30T03:31:33;94212.91;;;9.97;77.07
3968;BME280;9221;42.646;23.380;2023-04-30T03:33:59;94216.84;;;9.93;77.16
3968;BME280;9221;42.646;23.380;2023-04-30T03:36:24;94183.38;;;9.59;77.52
3968;BME280;9221;42.646;23.380;2023-04-30T03:38:51;94155.28;;;9.41;77.76
3968;BME280;9221;42.646;23.380;2023-04-30T03:41:16;94231.97;;;10.17;78.29
3968;BME280;9221;42.646;23.380;2023-04-30T03:43:42;94238.72;;;10.20;77.69
3968;BME280;9221;42.646;23.380;2023-04-30T03:46:07;94174.97;;;9.55;78.23
3968;BME280;9221;42.646;23.380;2023-04-30T03:48:33;94246.34;;;9.96;78.03
3968;BME280;9221;42.646;23.380;2023-04-30T03:50:58;94271.19;;;9.94;78.10
3968;BME280;9221;42.646;23.380;2023-04-30T03:53:23;94229.44;;;9.81;77.66
3968;BME280;9221;42.646;23.380;2023-04-30T03:55:50;94255.97;;;10.14;77.08
3968;BME280;9221;42.646;23.380;2023-04-30T03:58:16;94267.31;;;10.06;77.32
3968;BME280;9221;42.646;23.380;2023-04-30T04:00:42;94235.84;;;10.05;77.61
3968;BME280;9221;42.646;23.380;2023-04-30T04:03:10;94250.91;;;10.21;77.03
3968;BME280;9221;42.646;23.380;2023-04-30T04:05:35;94070.81;;;9.00;76.83
3968;BME280;9221;42.646;23.380;2023-04-30T04:08:00;94247.81;;;9.99;77.82
3968;BME280;9221;42.646;23.380;2023-04-30T04:10:26;94275.75;;;10.18;77.46
3968;BME280;9221;42.646;23.380;2023-04-30T04:12:51;94225.81;;;10.08;76.75
3968;BME280;9221;42.646;23.380;2023-04-30T04:15:17;94198.13;;;10.04;76.43
3968;BME280;9221;42.646;23.380;2023-04-30T04:17:42;94276.84;;;10.60;76.15
3968;BME280;9221;42.646;23.380;2023-04-30T04:20:08;94263.03;;;10.74;75.88
3968;BME280;9221;42.646;23.380;2023-04-30T04:22:34;94195.06;;;10.43;75.53
3968;BME280;9221;42.646;23.380;2023-04-30T04:24:59;94191.75;;;10.41;74.73
3968;BME280;9221;42.646;23.380;2023-04-30T04:27:25;94268.41;;;10.91;74.68
3968;BME280;9221;42.646;23.380;2023-04-30T04:29:51;94269.25;;;10.57;75.22
3968;BME280;9221;42.646;23.380;2023-04-30T04:32:17;94266.44;;;11.01;75.12
3968;BME280;9221;42.646;23.380;2023-04-30T04:34:42;94267.94;;;11.04;74.69
3968;BME280;9221;42.646;23.380;2023-04-30T04:37:08;94198.41;;;10.62;74.58
3968;BME280;9221;42.646;23.380;2023-04-30T04:39:34;94200.66;;;10.40;75.54
3968;BME280;9221;42.646;23.380;2023-04-30T04:42:01;94208.47;;;10.24;75.77
3968;BME280;9221;42.646;23.380;2023-04-30T04:44:26;94256.69;;;10.50;76.67
3968;BME280;9221;42.646;23.380;2023-04-30T04:46:52;94234.59;;;10.43;76.84
3968;BME280;9221;42.646;23.380;2023-04-30T04:49:18;94210.13;;;10.33;77.20
3968;BME280;9221;42.646;23.380;2023-04-30T04:51:43;94264.63;;;11.01;76.40
3968;BME280;9221;42.646;23.380;2023-04-30T04:54:09;94270.84;;;10.84;75.63
3968;BME280;9221;42.646;23.380;2023-04-30T04:56:34;94280.53;;;10.75;76.74
3968;BME280;9221;42.646;23.380;2023-04-30T04:59:00;94269.66;;;10.78;76.95
3968;BME280;9221;42.646;23.380;2023-04-30T05:01:25;94164.72;;;10.39;76.23
3968;BME280;9221;42.646;23.380;2023-04-30T05:03:51;94290.94;;;11.36;75.42
3968;BME280;9221;42.646;23.380;2023-04-30T05:06:17;94228.91;;;10.73;75.83
3968;BME280;9221;42.646;23.380;2023-04-30T05:08:43;94222.41;;;10.50;76.32
3968;BME280;9221;42.646;23.380;2023-04-30T05:11:08;94271.97;;;10.73;77.13
3968;BME280;9221;42.646;23.380;2023-04-30T05:13:34;94285.56;;;10.95;76.80
3968;BME280;9221;42.646;23.380;2023-04-30T05:16:00;94225.75;;;10.53;76.88
3968;BME280;9221;42.646;23.380;2023-04-30T05:18:25;94301.94;;;11.15;77.34
3968;BME280;9221;42.646;23.380;2023-04-30T05:20:50;94295.22;;;11.37;75.91
3968;BME280;9221;42.646;23.380;2023-04-30T05:23:16;94218.78;;;11.03;75.27
3968;BME280;9221;42.646;23.380;2023-04-30T05:25:41;94218.97;;;11.34;74.94
3968;BME280;9221;42.646;23.380;2023-04-30T05:28:07;94264.22;;;11.80;74.05
3968;BME280;9221;42.646;23.380;2023-04-30T05:30:32;94321.72;;;12.03;73.60
3968;BME280;9221;42.646;23.380;2023-04-30T05:32:57;94316.59;;;12.10;73.58
3968;BME280;9221;42.646;23.380;2023-04-30T05:35:23;94307.50;;;12.21;73.12
3968;BME280;9221;42.646;23.380;2023-04-30T05:37:49;94327.94;;;12.43;72.76
3968;BME280;9221;42.646;23.380;2023-04-30T05:40:14;94223.22;;;12.17;72.12
3968;BME280;9221;42.646;23.380;2023-04-30T05:42:41;94213.16;;;12.21;72.14
3968;BME280;9221;42.646;23.380;2023-04-30T05:45:08;94298.41;;;12.88;71.35
3968;BME280;9221;42.646;23.380;2023-04-30T05:47:34;94219.84;;;12.48;70.92
3968;BME280;9221;42.646;23.380;2023-04-30T05:49:59;94284.38;;;12.79;72.16
3968;BME280;9221;42.646;23.380;2023-04-30T05:52:25;94289.81;;;12.85;71.77
3968;BME280;9221;42.646;23.380;2023-04-30T05:54:50;94229.09;;;12.44;71.86
3968;BME280;9221;42.646;23.380;2023-04-30T05:57:16;94338.13;;;12.71;71.45
3968;BME280;9221;42.646;23.380;2023-04-30T05:59:41;94276.81;;;12.67;71.03
3968;BME280;9221;42.646;23.380;2023-04-30T06:02:07;94269.34;;;12.71;71.27
3968;BME280;9221;42.646;23.380;2023-04-30T06:04:33;94284.78;;;12.99;71.42
3968;BME280;9221;42.646;23.380;2023-04-30T06:06:58;94232.34;;;12.63;70.42
3968;BME280;9221;42.646;23.380;2023-04-30T06:09:23;94227.19;;;12.69;70.26
3968;BME280;9221;42.646;23.380;2023-04-30T06:11:49;94241.44;;;12.68;70.29
3968;BME280;9221;42.646;23.380;2023-04-30T06:14:16;94287.41;;;13.07;70.22
3968;BME280;9221;42.646;23.380;2023-04-30T06:16:43;94295.56;;;13.29;70.13
3968;BME280;9221;42.646;23.380;2023-04-30T06:19:09;94296.19;;;13.39;69.75
3968;BME280;9221;42.646;23.380;2023-04-30T06:21:34;94305.69;;;13.57;69.30
3968;BME280;9221;42.646;23.380;2023-04-30T06:24:00;94273.00;;;13.41;69.11
3968;BME280;9221;42.646;23.380;2023-04-30T06:26:26;94298.78;;;13.70;68.98
3968;BME280;9221;42.646;23.380;2023-04-30T06:28:51;94301.25;;;13.95;68.68
3968;BME280;9221;42.646;23.380;2023-04-30T06:31:16;94234.81;;;13.74;67.83
3968;BME280;9221;42.646;23.380;2023-04-30T06:33:42;94306.91;;;14.15;67.14
3968;BME280;9221;42.646;23.380;2023-04-30T06:36:07;94301.06;;;14.35;67.41
3968;BME280;9221;42.646;23.380;2023-04-30T06:38:33;94254.22;;;14.12;66.90
3968;BME280;9221;42.646;23.380;2023-04-30T06:40:58;94241.38;;;14.01;66.44
3968;BME280;9221;42.646;23.380;2023-04-30T06:43:23;94239.75;;;14.00;66.94
3968;BME280;9221;42.646;23.380;2023-04-30T06:45:49;94310.53;;;14.52;66.59
3968;BME280;9221;42.646;23.380;2023-04-30T06:48:14;94282.31;;;14.36;65.67
3968;BME280;9221;42.646;23.380;2023-04-30T06:50:39;94262.13;;;14.35;65.91
3968;BME280;9221;42.646;23.380;2023-04-30T06:53:12;94317.88;;;14.80;65.47
3968;BME280;9221;42.646;23.380;2023-04-30T06:55:38;94313.22;;;14.82;65.31
3968;BME280;9221;42.646;23.380;2023-04-30T06:58:04;94262.47;;;14.47;64.86
3968;BME280;9221;42.646;23.380;2023-04-30T07:00:32;94384.06;;;15.27;64.19
3968;BME280;9221;42.646;23.380;2023-04-30T07:02:58;94328.03;;;15.21;64.39
3968;BME280;9221;42.646;23.380;2023-04-30T07:05:28;94321.91;;;15.57;63.17
3968;BME280;9221;42.646;23.380;2023-04-30T07:07:55;94320.53;;;15.62;63.49
3968;BME280;9221;42.646;23.380;2023-04-30T07:10:20;94319.66;;;15.76;62.09
3968;BME280;9221;42.646;23.380;2023-04-30T07:12:46;94337.72;;;15.81;62.02
3968;BME280;9221;42.646;23.380;2023-04-30T07:15:11;94308.56;;;15.72;61.88
3968;BME280;9221;42.646;23.380;2023-04-30T07:17:37;94262.41;;;15.37;61.81
3968;BME280;9221;42.646;23.380;2023-04-30T07:20:03;94220.06;;;15.14;62.46
3968;BME280;9221;42.646;23.380;2023-04-30T07:22:30;94290.13;;;15.49;62.34
3968;BME280;9221;42.646;23.380;2023-04-30T07:24:55;94267.75;;;15.59;62.07
3968;BME280;9221;42.646;23.380;2023-04-30T07:27:21;94329.69;;;15.96;62.09
3968;BME280;9221;42.646;23.380;2023-04-30T07:29:46;94276.34;;;15.61;62.58
3968;BME280;9221;42.646;23.380;2023-04-30T07:32:12;94245.84;;;15.56;62.12
3968;BME280;9221;42.646;23.380;2023-04-30T07:34:39;94347.81;;;16.07;61.57
3968;BME280;9221;42.646;23.380;2023-04-30T07:37:04;94324.88;;;16.06;62.11
3968;BME280;9221;42.646;23.380;2023-04-30T07:39:30;94213.81;;;15.43;62.11
3968;BME280;9221;42.646;23.380;2023-04-30T07:41:55;94314.34;;;16.19;61.28
3968;BME280;9221;42.646;23.380;2023-04-30T07:44:21;94351.25;;;16.22;60.98
3968;BME280;9221;42.646;23.380;2023-04-30T07:46:46;94322.19;;;16.28;60.73
3968;BME280;9221;42.646;23.380;2023-04-30T07:49:12;94362.97;;;16.28;60.35
3968;BME280;9221;42.646;23.380;2023-04-30T07:51:37;94329.69;;;16.39;59.87
3968;BME280;9221;42.646;23.380;2023-04-30T07:54:03;94281.63;;;15.97;60.12
3968;BME280;9221;42.646;23.380;2023-04-30T07:56:29;94332.91;;;16.34;60.16
3968;BME280;9221;42.646;23.380;2023-04-30T07:58:54;94259.78;;;16.02;59.52
3968;BME280;9221;42.646;23.380;2023-04-30T08:01:20;94314.91;;;16.36;59.96
3968;BME280;9221;42.646;23.380;2023-04-30T08:03:45;94323.84;;;16.29;59.11
3968;BME280;9221;42.646;23.380;2023-04-30T08:06:11;94305.47;;;16.34;59.10
3968;BME280;9221;42.646;23.380;2023-04-30T08:08:36;94323.28;;;16.62;58.48
3968;BME280;9221;42.646;23.380;2023-04-30T08:11:02;94283.03;;;16.43;58.11
3968;BME280;9221;42.646;23.380;2023-04-30T08:13:27;94328.44;;;16.91;57.75
3968;BME280;9221;42.646;23.380;2023-04-30T08:15:53;94337.09;;;17.07;56.53
3968;BME280;9221;42.646;23.380;2023-04-30T08:18:18;94304.66;;;16.90;55.94
3968;BME280;9221;42.646;23.380;2023-04-30T08:20:43;94330.25;;;17.26;54.92
3968;BME280;9221;42.646;23.380;2023-04-30T08:23:09;94271.97;;;17.16;54.67
3968;BME280;9221;42.646;23.380;2023-04-30T08:25:34;94278.59;;;17.27;53.70
3968;BME280;9221;42.646;23.380;2023-04-30T08:28:01;94266.34;;;17.46;53.31
3968;BME280;9221;42.646;23.380;2023-04-30T08:30:26;94269.84;;;17.53;52.68
3968;BME280;9221;42.646;23.380;2023-04-30T08:32:51;94347.66;;;17.70;52.43
3968;BME280;9221;42.646;23.380;2023-04-30T08:35:17;94255.56;;;17.13;52.66
3968;BME280;9221;42.646;23.380;2023-04-30T08:37:43;94326.13;;;17.72;52.30
3968;BME280;9221;42.646;23.380;2023-04-30T08:40:08;94305.34;;;17.54;52.85
3968;BME280;9221;42.646;23.380;2023-04-30T08:42:37;94336.97;;;17.64;52.98
3968;BME280;9221;42.646;23.380;2023-04-30T08:45:07;94290.06;;;17.28;54.81
3968;BME280;9221;42.646;23.380;2023-04-30T08:47:36;94249.19;;;17.07;56.64
3968;BME280;9221;42.646;23.380;2023-04-30T08:50:03;94257.16;;;17.00;55.93
3968;BME280;9221;42.646;23.380;2023-04-30T08:52:28;94330.28;;;17.33;56.07
3968;BME280;9221;42.646;23.380;2023-04-30T08:54:56;94292.06;;;17.12;56.75
3968;BME280;9221;42.646;23.380;2023-04-30T08:57:23;94317.97;;;17.38;55.25
3968;BME280;9221;42.646;23.380;2023-04-30T08:59:48;94265.81;;;17.09;55.13
3968;BME280;9221;42.646;23.380;2023-04-30T09:02:14;94327.09;;;17.57;54.84
3968;BME280;9221;42.646;23.380;2023-04-30T09:04:39;94309.69;;;17.75;54.38
3968;BME280;9221;42.646;23.380;2023-04-30T09:07:05;94307.94;;;18.02;53.59
3968;BME280;9221;42.646;23.380;2023-04-30T09:09:37;94290.69;;;17.98;52.45
3968;BME280;9221;42.646;23.380;2023-04-30T09:12:17;94254.56;;;18.09;52.10
3968;BME280;9221;42.646;23.380;2023-04-30T09:15:00;94304.63;;;18.94;50.81
3968;BME280;9221;42.646;23.380;2023-04-30T09:17:27;94256.56;;;19.78;47.75
3968;BME280;9221;42.646;23.380;2023-04-30T09:19:52;94305.75;;;20.73;44.34
3968;BME280;9221;42.646;23.380;2023-04-30T09:22:20;94192.72;;;20.57;43.54
3968;BME280;9221;42.646;23.380;2023-04-30T09:24:47;94296.13;;;21.27;42.08
3968;BME280;9221;42.646;23.380;2023-04-30T09:27:22;94342.91;;;21.87;42.08
3968;BME280;9221;42.646;23.380;2023-04-30T09:29:48;94285.63;;;22.59;40.55
3968;BME280;9221;42.646;23.380;2023-04-30T09:32:14;94278.88;;;22.92;38.66
3968;BME280;9221;42.646;23.380;2023-04-30T09:34:40;94279.56;;;23.23;38.43
3968;BME280;9221;42.646;23.380;2023-04-30T09:37:06;94280.69;;;23.51;37.84
3968;BME280;9221;42.646;23.380;2023-04-30T09:39:32;94269.69;;;23.41;37.60
3968;BME280;9221;42.646;23.380;2023-04-30T09:42:07;94232.41;;;23.32;37.32
3968;BME280;9221;42.646;23.380;2023-04-30T09:44:38;94210.53;;;23.58;36.27
3968;BME280;9221;42.646;23.380;2023-04-30T09:47:03;94206.53;;;23.31;36.37
3968;BME280;9221;42.646;23.380;2023-04-30T09:49:29;94297.44;;;23.70;36.37
3968;BME280;9221;42.646;23.380;2023-04-30T09:52:00;94257.38;;;23.57;36.73
3968;BME280;9221;42.646;23.380;2023-04-30T09:54:30;94241.00;;;23.46;36.77
3968;BME280;9221;42.646;23.380;2023-04-30T09:56:59;94255.44;;;23.40;36.81
3968;BME280;9221;42.646;23.380;2023-04-30T09:59:34;94313.25;;;23.38;36.52
3968;BME280;9221;42.646;23.380;2023-04-30T10:02:03;94265.97;;;23.42;36.25
3968;BME280;9221;42.646;23.380;2023-04-30T10:04:41;94257.44;;;23.09;37.00
3968;BME280;9221;42.646;23.380;2023-04-30T10:07:14;94304.09;;;22.68;37.72
3968;BME280;9221;42.646;23.380;2023-04-30T10:09:52;94247.09;;;22.42;38.18
3968;BME280;9221;42.646;23.380;2023-04-30T10:12:43;94247.25;;;21.74;40.20
3968;BME280;9221;42.646;23.380;2023-04-30T10:15:53;94241.28;;;21.72;40.83
3968;BME280;9221;42.646;23.380;2023-04-30T10:18:22;94183.59;;;22.05;38.88
3968;BME280;9221;42.646;23.380;2023-04-30T10:20:52;94235.34;;;22.24;38.92
3968;BME280;9221;42.646;23.380;2023-04-30T10:23:20;94184.25;;;22.01;38.24
3968;BME280;9221;42.646;23.380;2023-04-30T10:25:46;94174.00;;;21.97;38.26
3968;BME280;9221;42.646;23.380;2023-04-30T10:28:12;94211.09;;;22.43;37.96
3968;BME280;9221;42.646;23.380;2023-04-30T10:30:40;94228.19;;;22.18;37.68
3968;BME280;9221;42.646;23.380;2023-04-30T10:33:18;94185.44;;;21.02;39.61
3968;BME280;9221;42.646;23.380;2023-04-30T10:35:56;94195.75;;;20.17;41.78
3968;BME280;9221;42.646;23.380;2023-04-30T10:38:29;94212.78;;;19.34;43.97
3968;BME280;9221;42.646;23.380;2023-04-30T10:40:57;94315.03;;;19.29;46.21
3968;BME280;9221;42.646;23.380;2023-04-30T10:43:24;94223.09;;;18.65;48.53
3968;BME280;9221;42.646;23.380;2023-04-30T10:45:50;94284.53;;;18.51;51.55
3968;BME280;9221;42.646;23.380;2023-04-30T10:48:16;94273.00;;;17.84;56.74
3968;BME280;9221;42.646;23.380;2023-04-30T10:50:51;94303.66;;;17.46;61.04
3968;BME280;9221;42.646;23.380;2023-04-30T10:53:18;94328.34;;;17.13;62.23
3968;BME280;9221;42.646;23.380;2023-04-30T10:55:58;94217.63;;;16.62;65.02
3968;BME280;9221;42.646;23.380;2023-04-30T10:58:32;94302.53;;;17.82;64.47
3968;BME280;9221;42.646;23.380;2023-04-30T11:01:12;94225.78;;;18.58;62.33
3968;BME280;9221;42.646;23.380;2023-04-30T11:03:40;94218.78;;;19.61;58.87
3968;BME280;9221;42.646;23.380;2023-04-30T11:06:10;94218.91;;;20.55;56.56
3968;BME280;9221;42.646;23.380;2023-04-30T11:08:36;94225.59;;;21.57;54.14
3968;BME280;9221;42.646;23.380;2023-04-30T11:11:02;94205.94;;;22.29;46.63
3968;BME280;9221;42.646;23.380;2023-04-30T11:13:39;94224.28;;;22.80;46.25
3968;BME280;9221;42.646;23.380;2023-04-30T11:16:05;94273.31;;;23.35;42.29
3968;BME280;9221;42.646;23.380;2023-04-30T11:18:31;94273.34;;;22.99;42.07
3968;BME280;9221;42.646;23.380;2023-04-30T11:20:57;94254.56;;;22.87;43.16
3968;BME280;9221;42.646;23.380;2023-04-30T11:23:24;94276.88;;;22.99;43.48
3968;BME280;9221;42.646;23.380;2023-04-30T11:25:53;94144.50;;;22.21;43.43
3968;BME280;9221;42.646;23.380;2023-04-30T11:28:23;94224.19;;;22.75;43.48
3968;BME280;9221;42.646;23.380;2023-04-30T11:30:54;94236.22;;;22.48;41.98
3968;BME280;9221;42.646;23.380;2023-04-30T11:33:23;94293.47;;;22.07;41.43
3968;BME280;9221;42.646;23.380;2023-04-30T11:35:50;94244.38;;;21.39;41.55
3968;BME280;9221;42.646;23.380;2023-04-30T11:38:29;94256.09;;;21.26;43.05
3968;BME280;9221;42.646;23.380;2023-04-30T11:40:56;94263.19;;;21.20;43.28
3968;BME280;9221;42.646;23.380;2023-04-30T11:43:29;94218.34;;;20.72;44.04
3968;BME280;9221;42.646;23.380;2023-04-30T11:48:23;94190.19;;;19.93;47.40
3968;BME280;9221;42.646;23.380;2023-04-30T11:50:48;94216.84;;;19.75;48.95
3968;BME280;9221;42.646;23.380;2023-04-30T11:53:14;94205.09;;;20.08;49.79
3968;BME280;9221;42.646;23.380;2023-04-30T11:55:39;94249.78;;;21.02;48.45
3968;BME280;9221;42.646;23.380;2023-04-30T11:58:08;94311.00;;;21.42;47.24
3968;BME280;9221;42.646;23.380;2023-04-30T12:00:33;94262.75;;;21.23;47.82
3968;BME280;9221;42.646;23.380;2023-04-30T12:02:59;94343.84;;;21.62;48.06
3968;BME280;9221;42.646;23.380;2023-04-30T12:05:27;94197.00;;;21.93;46.70
3968;BME280;9221;42.646;23.380;2023-04-30T12:07:59;94246.09;;;22.24;44.84
3968;BME280;9221;42.646;23.380;2023-04-30T12:10:25;94262.25;;;22.72;44.06
3968;BME280;9221;42.646;23.380;2023-04-30T12:12:51;94252.19;;;23.03;44.98
3968;BME280;9221;42.646;23.380;2023-04-30T12:15:21;94263.22;;;22.65;44.59
3968;BME280;9221;42.646;23.380;2023-04-30T12:17:51;94261.56;;;21.98;46.49
3968;BME280;9221;42.646;23.380;2023-04-30T12:20:16;94266.91;;;21.19;47.69
3968;BME280;9221;42.646;23.380;2023-04-30T12:22:43;94214.28;;;20.44;47.93
3968;BME280;9221;42.646;23.380;2023-04-30T12:25:15;94259.44;;;20.15;50.05
3968;BME280;9221;42.646;23.380;2023-04-30T12:27:48;94234.41;;;19.64;50.58
3968;BME280;9221;42.646;23.380;2023-04-30T12:30:17;94297.50;;;19.40;49.67
3968;BME280;9221;42.646;23.380;2023-04-30T12:32:44;94291.81;;;19.16;51.97
3968;BME280;9221;42.646;23.380;2023-04-30T12:35:16;94222.56;;;18.22;56.03
3968;BME280;9221;42.646;23.380;2023-04-30T12:37:46;94221.31;;;18.05;61.48
3968;BME280;9221;42.646;23.380;2023-04-30T12:40:13;94278.41;;;18.31;67.86
3968;BME280;9221;42.646;23.380;2023-04-30T12:42:40;94283.31;;;17.93;63.47
3968;BME280;9221;42.646;23.380;2023-04-30T12:45:06;94281.97;;;17.63;66.68
3968;BME280;9221;42.646;23.380;2023-04-30T12:47:36;94242.09;;;17.28;68.09
3968;BME280;9221;42.646;23.380;2023-04-30T12:50:03;94231.94;;;16.89;69.16
3968;BME280;9221;42.646;23.380;2023-04-30T12:52:31;94266.34;;;16.63;72.59
3968;BME280;9221;42.646;23.380;2023-04-30T12:55:13;94281.63;;;16.82;73.47
3968;BME280;9221;42.646;23.380;2023-04-30T12:57:39;94214.28;;;16.18;72.87
3968;BME280;9221;42.646;23.380;2023-04-30T13:00:05;94296.28;;;16.36;74.32
3968;BME280;9221;42.646;23.380;2023-04-30T13:02:30;94392.53;;;16.18;73.90
3968;BME280;9221;42.646;23.380;2023-04-30T13:04:56;94255.56;;;16.42;72.82
3968;BME280;9221;42.646;23.380;2023-04-30T13:07:21;94282.63;;;17.16;74.44
3968;BME280;9221;42.646;23.380;2023-04-30T13:09:47;94192.03;;;17.16;69.24
3968;BME280;9221;42.646;23.380;2023-04-30T13:12:12;94352.50;;;17.53;65.07
3968;BME280;9221;42.646;23.380;2023-04-30T13:14:39;94277.72;;;17.13;66.19
3968;BME280;9221;42.646;23.380;2023-04-30T13:17:05;94203.50;;;17.10;64.44
3968;BME280;9221;42.646;23.380;2023-04-30T13:19:31;94148.41;;;16.69;62.91
3968;BME280;9221;42.646;23.380;2023-04-30T13:21:57;94203.81;;;16.87;64.07
3968;BME280;9221;42.646;23.380;2023-04-30T13:24:23;94187.72;;;17.02;65.75
3968;BME280;9221;42.646;23.380;2023-04-30T13:26:49;94215.34;;;17.89;64.99
3968;BME280;9221;42.646;23.380;2023-04-30T13:29:14;94246.34;;;17.84;61.48